Flight Track Log - Related Links

Times and Time Zones

All times are in EDT time to prevent confusion due to time zone crossing. See the SWA902 flight status page for this flight to view local times or setup timezone preferences in your user account.

Time Position Orientation Groundspeed Altitude Reporting Facility
EDT Latitude Longitude Course Direction KTS MPH feet Rate Location/Type
Sat 08:28:49 AM 39.3333 -94.7167 329° Northwest 172 198 1,700  Level Kansas City TRACON
Sat 08:30:03 AM 39.3811 -94.7542 329° Northwest 209 241 4,700 2,400 Climbing Kansas City Center
Sat 08:31:04 AM 39.3628 -94.8347 254° West 246 283 7,100 2,390 Climbing Kansas City Center
Sat 08:32:06 AM 39.3472 -94.9247 257° West 269 310 9,600 2,488 Climbing Kansas City Center
Sat 08:33:07 AM 39.3264 -95.0333 256° West 279 321 12,200 2,361 Climbing Kansas City Center
Sat 08:34:08 AM 39.3069 -95.1408 257° West 305 351 14,400 2,213 Climbing Kansas City Center
Sat 08:35:09 AM 39.2842 -95.2619 256° West 324 373 16,700 2,066 Climbing Kansas City Center
Sat 08:36:10 AM 39.2603 -95.3767 255° West 332 382 18,600 1,770 Climbing Kansas City Center
Sat 08:37:11 AM 39.2367 -95.4947 256° West 336 387 20,300 1,475 Climbing Kansas City Center
Sat 08:38:12 AM 39.2133 -95.6150 256° West 361 415 21,600 1,415 Climbing Kansas City Center
Sat 08:39:14 AM 39.1878 -95.7431 256° West 381 438 23,200 1,707 Climbing Kansas City Center
Sat 08:40:15 AM 39.1567 -95.8947 255° West 393 452 25,100 1,820 Climbing Kansas City Center
Sat 08:41:16 AM 39.0944 -96.0086 235° Southwest 418 481 26,900 2,164 Climbing Kansas City Center
Sat 08:42:17 AM 39.0008 -96.1203 223° Southwest 414 476 29,500 1,770 Climbing Kansas City Center
Sat 08:43:18 AM 38.9242 -96.2136 223° Southwest 401 461 30,500 878 Climbing Kansas City Center
Sat 08:44:20 AM 38.8453 -96.3094 223° Southwest 405 466 31,300 1,024 Climbing Kansas City Center
Sat 08:45:21 AM 38.7503 -96.4200 222° Southwest 411 473 32,600 1,180 Climbing Kansas City Center
Sat 08:46:22 AM 38.6694 -96.5139 222° Southwest 410 472 33,700 689 Climbing Kansas City Center
Sat 08:47:23 AM 38.5761 -96.6244 223° Southwest 410 472 34,000 146 Climbing Kansas City Center
Sat 08:48:25 AM 38.4947 -96.7192 222° Southwest 414 476 34,000  Level Kansas City Center
Sat 08:49:26 AM 38.4114 -96.8178 223° Southwest 418 481 34,000 295 Level Kansas City Center
Sat 08:50:27 AM 38.3244 -96.9194 223° Southwest 422 486 34,600 639 Climbing Kansas City Center
Sat 08:51:28 AM 38.2667 -97.0378 238° Southwest 402 463 35,300 683 Climbing Kansas City Center
Sat 08:52:30 AM 38.2678 -97.1675 271° West 371 427 36,000 341 Climbing Kansas City Center
Sat 08:53:31 AM 38.2675 -97.2983 270° West 370 426 36,000  Level Kansas City Center
Sat 08:54:32 AM 38.2678 -97.4544 270° West 371 427 36,000  Level Kansas City Center
Sat 08:55:34 AM 38.2672 -97.5850 270° West 372 428 36,000  Level Kansas City Center
Sat 08:56:35 AM 38.2672 -97.7164 270° West 374 430 36,000  Level Kansas City Center
Sat 08:57:36 AM 38.2667 -97.8475 270° West 375 432 36,000  Level Kansas City Center
Sat 08:58:38 AM 38.2664 -97.9797 270° West 376 433 36,000  Level Kansas City Center
Sat 08:59:39 AM 38.2661 -98.1119 270° West 376 433 36,000  Level Kansas City Center
Sat 09:00:40 AM 38.2642 -98.2431 269° West 375 432 36,000  Level Kansas City Center
Sat 09:01:42 AM 38.2631 -98.3758 269° West 377 434 36,000  Level Kansas City Center
Sat 09:02:43 AM 38.2625 -98.5342 270° West 376 433 36,000  Level Kansas City Center
Sat 09:03:44 AM 38.2608 -98.6653 269° West 372 428 36,000  Level Kansas City Center
Sat 09:04:45 AM 38.2589 -98.7964 269° West 373 429 36,000  Level Kansas City Center
Sat 09:05:47 AM 38.2564 -98.9267 269° West 370 426 36,000  Level Kansas City Center
Sat 09:06:48 AM 38.2547 -99.0578 269° West 371 427 36,000  Level Kansas City Center
Sat 09:07:50 AM 38.2531 -99.1861 269° West 366 421 36,000  Level Kansas City Center
Sat 09:08:51 AM 38.2517 -99.3156 269° West 366 421 36,000  Level Kansas City Center
Sat 09:09:52 AM 38.2486 -99.4447 268° West 365 420 36,000  Level Kansas City Center
Sat 09:10:54 AM 38.2461 -99.5842 269° West 361 415 36,000  Level Kansas City Center
Sat 09:11:55 AM 38.2428 -99.7267 268° West 362 417 36,000  Level Kansas City Center
Sat 09:12:56 AM 38.2397 -99.8489 268° West 362 417 36,000  Level Kansas City Center
Sat 09:13:58 AM 38.2367 -99.9914 268° West 361 415 36,000  Level Kansas City Center
Sat 09:14:59 AM 38.2336 -100.1128 268° West 361 415 36,000  Level Kansas City Center
Sat 09:16:01 AM 38.2311 -100.2344 269° West 361 415 36,000  Level Kansas City Center
Sat 09:17:02 AM 38.2275 -100.3742 268° West 357 411 36,000  Level Kansas City Center
Sat 09:18:03 AM 38.2244 -100.4944 268° West 357 411 36,000  Level Kansas City Center
Sat 09:19:05 AM 38.2200 -100.6328 268° West 354 407 36,000  Level Kansas City Center
Sat 09:20:06 AM 38.2161 -100.7517 268° West 352 405 36,000  Level Kansas City Center
Sat 09:21:08 AM 38.2131 -100.8711 268° West 353 406 36,000  Level Kansas City Center
Sat 09:22:09 AM 38.2089 -101.0100 268° West 355 409 36,000  Level Kansas City Center
Sat 09:23:11 AM 38.2042 -101.1281 267° West 352 405 36,000  Level Kansas City Center
Sat 09:23:46 AM 38.2017 -101.2067 268° West 353 406 36,000  Level Denver Center
Sat 09:24:46 AM 38.1978 -101.3253 268° West 353 406 36,000  Level Denver Center
Sat 09:25:47 AM 38.2083 -101.4583 276° West 341 392 36,000  Level Denver Center
Sat 09:26:48 AM 38.2575 -101.5564 303° West 344 396 36,000  Level Denver Center
Sat 09:27:49 AM 38.3067 -101.6561 302° West 348 400 36,000  Level Denver Center
Sat 09:28:50 AM 38.3633 -101.7719 302° West 347 399 36,000  Level Denver Center
Sat 09:29:50 AM 38.4125 -101.8708 302° West 347 399 36,000  Level Denver Center
Sat 09:30:51 AM 38.4622 -101.9703 303° West 347 399 36,000  Level Denver Center
Sat 09:31:52 AM 38.5192 -102.0875 302° West 347 399 36,000  Level Denver Center
Sat 09:32:53 AM 38.5689 -102.1878 302° West 348 400 36,000  Level Denver Center
Sat 09:33:54 AM 38.6239 -102.3044 301° West 345 397 36,000  Level Denver Center
Sat 09:34:55 AM 38.6722 -102.4042 302° West 345 397 36,000  Level Denver Center
Sat 09:35:56 AM 38.7208 -102.5036 302° West 344 396 36,000  Level Denver Center
Sat 09:36:57 AM 38.7778 -102.6211 302° West 348 400 36,000  Level Denver Center
Sat 09:37:58 AM 38.8261 -102.7217 302° West 347 399 36,000  Level Denver Center
Sat 09:38:59 AM 38.8739 -102.8236 301° West 348 400 36,000  Level Denver Center
Sat 09:39:59 AM 38.9250 -102.9300 302° West 350 403 36,000 -857 Level Denver Center
Sat 09:41:12 AM 38.9753 -103.0364 301° West 351 404 34,100 -2,178 Descending Denver Center
Sat 09:42:14 AM 39.0356 -103.1658 301° West 351 404 31,100 -2,213 Descending Denver Center
Sat 09:43:14 AM 39.0750 -103.2494 301° West 346 398 29,600 -2,066 Descending Denver Center
Sat 09:44:16 AM 39.1428 -103.3931 301° West 336 387 26,900 -2,098 Descending Denver Center
Sat 09:45:17 AM 39.1844 -103.4800 302° West 351 404 25,300 -2,066 Descending Denver Center
Sat 09:46:18 AM 39.2486 -103.6183 301° West 374 430 22,700 -2,262 Descending Denver Center
Sat 09:47:19 AM 39.3000 -103.7292 301° West 363 418 20,700 -1,869 Descending Denver Center
Sat 09:48:20 AM 39.3478 -103.8347 300° West 347 399 18,900 -1,525 Descending Denver Center
Sat 09:49:21 AM 39.3944 -103.9372 301° West 333 383 17,600 -1,475 Descending Denver Center
Sat 09:50:22 AM 39.4203 -104.0533 286° West 307 353 15,900 -1,707 Descending Denver Center
Sat 09:51:24 AM 39.4472 -104.1567 289° West 304 350 14,100 -1,659 Descending Denver Center
Sat 09:52:25 AM 39.4728 -104.2572 288° West 294 338 12,500 -1,525 Descending Denver Center
Sat 09:53:26 AM 39.5111 -104.3478 299° West 289 333 11,000 -1,672 Descending Denver Center
Sat 09:54:27 AM 39.5725 -104.4236 316° Northwest 284 327 9,100 -1,623 Descending Denver Center
Sat 09:55:28 AM 39.6297 -104.4961 316° Northwest 284 327 7,700 -1,024 Descending Denver Center
Sat 09:56:30 AM 39.6825 -104.5594 317° Northwest 264 304 7,000 -341 Descending Denver Center
Sat 09:57:31 AM 39.7228 -104.6094 316° Northwest 197 227 7,000 -197 Level Denver Center
Sat 09:58:32 AM 39.7667 -104.6419 330° Northwest 170 196 6,600 -541 Descending Denver Center
Sat 09:59:33 AM 39.8075 -104.6419 360° North 150 173 5,900 -629 Descending Denver Center
Sat 10:00:36 AM 39.8497 -104.6414 North 140 161 5,300 -571 Descending Denver Center
Sat 10:02:00 AM 39.8500 -104.6667 339° North  Level FlightAware Approximate
Sat 10:09:00 AM 39.8617 -104.6732 339° North  Level Estimated
Sat 10:10:00 AM 39.8617 -104.6732 339° North  Level Estimated

Login

Don't have an account? Register now (free) for customized features, flight alerts, and more!